Time;durP1;ratioP1;P1;durP2;ratioP2;P2;SDS_P1;SDS_P2;PMS_P1;PMS_P2;Temp;Humidity;BMP_temperature;BMP_pressure;BME280_temperature;BME280_humidity;BME280_pressure;Samples;Min_cycle;Max_cycle;Signal;HPM_P1;HPM_P2
2022/07/29 00:00:50;;;;;;;;;;;;;;;;;;;;;
2022/07/29 00:03:44;;;;;;;0.10;0.10;;;15.90;99.90;;;;;;4836370;29;20056;-94
2022/07/29 00:12:28;;;;;;;0.03;0.03;;;15.80;99.90;;;;;;4849819;29;20082;-95
2022/07/29 00:15:24;;;;;;;0.10;0.10;;;15.70;99.90;;;;;;4839198;29;20118;-95
2022/07/29 00:18:21;;;;;;;0.30;0.20;;;15.10;99.90;;;;;;4835390;29;20378;-95
2022/07/29 00:21:03;;;;;;;0.10;0.10;;;15.00;99.90;;;;;;4826631;29;20041;-95
2022/07/29 00:23:32;;;;;;;0.00;0.00;;;15.10;99.90;;;;;;4848441;29;20053;-96
2022/07/29 00:26:03;;;;;;;0.30;0.03;;;15.70;99.90;;;;;;4840899;29;20061;-95
2022/07/29 00:28:44;;;;;;;;;;;;;;;;;;;;;
2022/07/29 00:31:41;;;;;;;0.10;0.10;;;15.60;99.90;;;;;;4854015;29;20050;-95
2022/07/29 00:37:46;;;;;;;;;;;;;;;;;;;;;
2022/07/29 00:40:24;;;;;;;;;;;;;;;;;;;;;
2022/07/29 00:43:12;;;;;;;0.08;0.08;;;15.60;99.90;;;;;;4849270;29;20053;-96
2022/07/29 00:45:59;;;;;;;0.70;0.10;;;15.60;99.90;;;;;;4830848;29;20045;-95
2022/07/29 00:48:27;;;;;;;0.00;0.00;;;15.60;99.90;;;;;;4820129;29;20050;-94
2022/07/29 00:51:14;;;;;;;;;;;;;;;;;;;;;
2022/07/29 00:53:56;;;;;;;;;;;;;;;;;;;;;
2022/07/29 00:56:52;;;;;;;;;;;;;;;;;;;;;
2022/07/29 00:59:34;;;;;;;;;;;;;;;;;;;;;
2022/07/29 01:02:06;;;;;;;0.10;0.10;;;15.50;99.90;;;;;;4850150;29;20123;-96
2022/07/29 01:04:42;;;;;;;;;;;;;;;;;;;;;
2022/07/29 01:07:14;;;;;;;0.20;0.20;;;15.50;99.90;;;;;;4855891;29;20057;-95
2022/07/29 01:10:33;;;;;;;;;;;;;;;;;;;;;
2022/07/29 01:13:03;;;;;;;;;;;15.50;99.90;;;;;;4846675;29;20068;-95
2022/07/29 01:15:34;;;;;;;0.00;0.00;;;15.60;99.90;;;;;;4838032;29;19931;-95
2022/07/29 01:18:28;;;;;;;;;;;;;;;;;;;;;
2022/07/29 01:21:19;;;;;;;0.20;0.20;;;15.40;99.90;;;;;;4862730;29;20066;-96
2022/07/29 01:24:17;;;;;;;0.10;0.10;;;15.40;99.90;;;;;;4831576;29;20053;-95
2022/07/29 01:26:51;;;;;;;0.68;0.30;;;15.40;99.90;;;;;;4838590;29;20050;-96
2022/07/29 01:29:32;;;;;;;0.10;0.10;;;15.40;99.90;;;;;;4831149;29;20098;-96
2022/07/29 01:32:21;;;;;;;0.00;0.00;;;15.40;99.90;;;;;;4854190;29;20135;-95
2022/07/29 01:35:05;;;;;;;0.10;0.10;;;15.40;99.90;;;;;;4861715;29;20049;-96
2022/07/29 01:37:55;;;;;;;0.00;0.00;;;15.70;99.90;;;;;;4838210;29;20065;-96
2022/07/29 01:40:50;;;;;;;0.00;0.00;;;15.30;99.90;;;;;;4833756;29;20132;-94
2022/07/29 01:43:51;;;;;;;;;;;;;;;;;;;;;
2022/07/29 01:47:23;;;;;;;;;;;;;;;;;;;;;
2022/07/29 01:50:10;;;;;;;;;;;15.40;99.90;;;;;;4832067;29;20069;-96
2022/07/29 01:56:53;;;;;;;0.28;0.13;;;15.30;99.90;;;;;;4793506;29;19932;-96
2022/07/29 01:59:36;;;;;;;0.03;0.03;;;15.10;99.90;;;;;;4790110;29;20059;-96
2022/07/29 02:02:42;;;;;;;;;;;;;;;;;;;;;
2022/07/29 02:05:42;;;;;;;;;;;;;;;;;;;;;
2022/07/29 02:16:18;;;;;;;0.10;0.10;;;15.30;99.90;;;;;;4862433;29;20456;-96
2022/07/29 02:19:36;;;;;;;0.20;0.10;;;15.20;99.90;;;;;;4860577;29;20086;-96
2022/07/29 02:22:52;;;;;;;;;;;;;;;;;;;;;
2022/07/29 02:25:51;;;;;;;0.03;0.03;;;14.50;99.90;;;;;;4855771;29;20117;-96
2022/07/29 02:29:14;;;;;;;;;;;;;;;;;;;;;
2022/07/29 02:32:30;;;;;;;0.10;0.10;;;15.20;99.90;;;;;;4844985;29;20049;-96
2022/07/29 02:35:10;;;;;;;0.00;0.00;;;15.20;99.90;;;;;;4846766;29;20045;-96
2022/07/29 02:41:31;;;;;;;0.10;0.10;;;15.20;99.90;;;;;;4850979;29;20061;-95
2022/07/29 02:44:34;;;;;;;0.25;0.25;;;15.20;99.90;;;;;;4853748;29;20128;-96
2022/07/29 02:47:34;;;;;;;0.20;0.20;;;15.20;99.90;;;;;;4848535;29;20059;-96
2022/07/29 02:50:17;;;;;;;0.00;0.00;;;14.60;99.90;;;;;;4843665;29;20162;-96
2022/07/29 02:53:36;;;;;;;0.00;0.00;;;15.20;99.90;;;;;;4830108;29;20121;-96
2022/07/29 02:56:37;;;;;;;;;;;;;;;;;;;;;
2022/07/29 03:03:27;;;;;;;0.00;0.00;;;15.20;99.90;;;;;;4847261;29;20087;-96
2022/07/29 03:06:33;;;;;;;;;;;;;;;;;;;;;
2022/07/29 03:13:33;;;;;;;0.00;0.00;;;14.90;99.90;;;;;;4839325;29;20058;-96
2022/07/29 03:16:38;;;;;;;0.15;0.15;;;14.10;99.90;;;;;;4823343;29;20054;-96
2022/07/29 03:19:44;;;;;;;;;;;;;;;;;;;;;
2022/07/29 03:29:58;;;;;;;0.30;0.10;;;15.10;99.90;;;;;;4779725;29;20127;-96
2022/07/29 03:52:00;;;;;;;0.10;0.10;;;14.20;99.90;;;;;;4647334;30;20058;-96
2022/07/29 04:10:51;;;;;;;;;;;;;;;;;;;;;
2022/07/29 04:13:43;;;;;;;0.00;0.00;;;15.20;99.90;;;;;;4652451;30;20120;-96
2022/07/29 04:16:26;;;;;;;0.00;0.00;;;14.90;99.90;;;;;;4666140;30;20497;-96
2022/07/29 04:18:51;;;;;;;0.00;0.00;;;14.90;99.90;;;;;;4673428;30;20143;-94
2022/07/29 04:28:43;;;;;;;;;;;;;;;;;;;;;
2022/07/29 04:32:13;;;;;;;0.00;0.00;;;15.00;99.90;;;;;;4840215;29;20138;-95
2022/07/29 04:36:09;;;;;;;;;;;;;;;;;;;;;
2022/07/29 04:43:32;;;;;;;0.10;0.10;;;14.90;99.90;;;;;;4779185;29;20053;-95
2022/07/29 05:09:21;;;;;;;0.00;0.00;;;14.90;99.90;;;;;;4704560;30;20142;-96
2022/07/29 05:12:59;;;;;;;;;;;;;;;;;;;;;
2022/07/29 05:16:27;;;;;;;;;;;;;;;;;;;;;
2022/07/29 05:30:32;;;;;;;0.00;0.00;;;14.40;99.90;;;;;;4799169;29;20105;-90
2022/07/29 05:33:36;;;;;;;0.15;0.15;;;15.00;99.90;;;;;;4832538;29;20057;-92
2022/07/29 05:40:17;;;;;;;0.30;0.30;;;14.60;99.90;;;;;;4797576;29;21535;-95
2022/07/29 05:58:16;;;;;;;0.08;0.08;;;15.80;99.90;;;;;;4804034;29;20127;-94
2022/07/29 06:00:58;;;;;;;0.10;0.10;;;15.30;99.90;;;;;;4771486;29;20446;-94
2022/07/29 06:03:25;;;;;;;0.10;0.10;;;15.20;99.90;;;;;;4781150;29;20137;-88
2022/07/29 06:05:53;;;;;;;0.10;0.10;;;15.20;99.90;;;;;;4798257;29;20468;-92
2022/07/29 06:08:21;;;;;;;0.10;0.10;;;15.20;99.90;;;;;;4822194;29;20072;-89
2022/07/29 06:10:47;;;;;;;0.17;0.10;;;15.20;99.90;;;;;;4846106;29;20071;-91
2022/07/29 06:13:15;;;;;;;0.30;0.17;;;15.30;99.90;;;;;;4833547;29;20065;-89
2022/07/29 06:15:42;;;;;;;0.20;0.10;;;15.40;99.90;;;;;;4832556;29;20408;-90
2022/07/29 06:18:09;;;;;;;0.20;0.15;;;15.40;99.90;;;;;;4841088;29;20489;-90
2022/07/29 06:20:35;;;;;;;0.88;0.30;;;15.50;99.90;;;;;;4829356;29;20101;-90
2022/07/29 06:23:04;;;;;;;0.40;0.40;;;15.40;99.90;;;;;;4860480;29;20121;-90
2022/07/29 06:25:30;;;;;;;0.15;0.15;;;15.50;99.90;;;;;;4845717;29;20092;-89
2022/07/29 06:27:56;;;;;;;0.20;0.20;;;15.50;99.90;;;;;;4839257;29;20085;-91
2022/07/29 06:30:21;;;;;;;0.30;0.30;;;15.60;99.90;;;;;;4839536;29;20049;-90
2022/07/29 06:32:47;;;;;;;0.00;0.00;;;15.50;99.90;;;;;;4830656;29;20168;-89
2022/07/29 06:35:13;;;;;;;0.10;0.10;;;15.60;99.90;;;;;;4830987;29;20045;-90
2022/07/29 06:37:39;;;;;;;0.20;0.20;;;15.60;99.90;;;;;;4831270;29;20049;-88
2022/07/29 06:42:51;;;;;;;0.10;0.10;;;15.60;99.90;;;;;;4859118;29;20305;-94
2022/07/29 06:45:17;;;;;;;0.17;0.17;;;15.60;99.90;;;;;;4845646;29;20049;-91
2022/07/29 06:47:43;;;;;;;0.10;0.10;;;15.60;99.90;;;;;;4843980;29;20061;-91
2022/07/29 06:50:12;;;;;;;0.10;0.10;;;15.60;99.90;;;;;;4831864;29;20136;-90
2022/07/29 06:52:38;;;;;;;0.10;0.10;;;15.60;99.90;;;;;;4830772;29;20049;-89
2022/07/29 06:55:06;;;;;;;;;;;15.70;99.90;;;;;;4864929;29;20522;-92
2022/07/29 06:57:32;;;;;;;0.50;0.10;;;15.70;99.90;;;;;;4861829;29;19923;-92
2022/07/29 06:59:58;;;;;;;0.55;0.20;;;15.80;99.90;;;;;;4846322;29;20056;-91
2022/07/29 07:02:24;;;;;;;0.00;0.00;;;15.80;99.90;;;;;;4828770;29;20045;-91
2022/07/29 07:04:50;;;;;;;0.00;0.00;;;15.80;99.90;;;;;;4830404;29;20047;-92
2022/07/29 07:07:18;;;;;;;0.22;0.22;;;15.80;99.90;;;;;;4828900;29;20408;-92
2022/07/29 07:09:44;;;;;;;0.47;0.47;;;15.80;99.90;;;;;;4829029;29;20101;-92
2022/07/29 07:12:12;;;;;;;0.20;0.20;;;15.90;99.90;;;;;;4820432;29;20061;-93
2022/07/29 07:14:39;;;;;;;0.00;0.00;;;15.80;99.90;;;;;;4835676;29;20050;-91
2022/07/29 07:17:06;;;;;;;0.22;0.20;;;15.90;99.90;;;;;;4828248;29;20045;-87
2022/07/29 07:19:32;;;;;;;0.47;0.43;;;15.90;99.90;;;;;;4837430;29;20060;-90
2022/07/29 07:21:58;;;;;;;0.03;0.00;;;15.90;99.90;;;;;;4846965;29;20053;-90
2022/07/29 07:24:26;;;;;;;0.00;0.00;;;16.00;99.90;;;;;;4845931;29;20049;-88
2022/07/29 07:26:51;;;;;;;0.10;0.10;;;16.00;99.90;;;;;;4835538;29;20049;-91
2022/07/29 07:29:17;;;;;;;0.10;0.10;;;16.00;99.90;;;;;;4865053;29;20049;-92
2022/07/29 07:31:43;;;;;;;0.20;0.10;;;16.10;99.90;;;;;;4831603;29;20049;-91
2022/07/29 07:34:09;;;;;;;0.23;0.10;;;16.20;99.90;;;;;;4826315;29;20041;-89
2022/07/29 07:36:34;;;;;;;0.10;0.10;;;16.20;99.90;;;;;;4839974;29;20572;-90
2022/07/29 07:39:00;;;;;;;0.17;0.17;;;16.20;99.90;;;;;;4834032;29;20052;-93
2022/07/29 07:41:26;;;;;;;0.08;0.08;;;16.30;99.90;;;;;;4861264;29;20511;-92
2022/07/29 07:43:52;;;;;;;0.38;0.03;;;16.30;99.90;;;;;;4802710;29;20041;-91
2022/07/29 07:46:18;;;;;;;0.10;0.10;;;16.30;99.90;;;;;;4839663;29;20044;-92
2022/07/29 07:48:44;;;;;;;0.53;0.10;;;16.30;99.90;;;;;;4869383;29;20297;-92
2022/07/29 07:51:10;;;;;;;0.20;0.20;;;16.40;99.90;;;;;;4866743;29;20480;-93
2022/07/29 07:53:37;;;;;;;0.40;0.20;;;16.50;99.90;;;;;;4844964;29;20105;-92
2022/07/29 07:56:04;;;;;;;0.10;0.10;;;16.50;99.90;;;;;;4817615;29;20056;-86
2022/07/29 07:58:30;;;;;;;0.17;0.17;;;16.50;99.90;;;;;;4820173;29;20396;-87
2022/07/29 08:00:58;;;;;;;0.13;0.10;;;16.50;99.90;;;;;;4834822;29;20124;-90
2022/07/29 08:03:24;;;;;;;0.13;0.10;;;16.60;99.90;;;;;;4831584;29;20049;-92
2022/07/29 08:05:54;;;;;;;0.10;0.10;;;16.60;99.90;;;;;;4838033;29;20128;-91
2022/07/29 08:08:22;;;;;;;0.13;0.13;;;16.70;99.90;;;;;;4868214;29;20056;-93
2022/07/29 08:10:52;;;;;;;0.00;0.00;;;16.60;99.90;;;;;;4854903;29;20085;-92
2022/07/29 08:13:37;;;;;;;0.60;0.25;;;16.70;99.90;;;;;;4885153;24;20062;-96
2022/07/29 08:16:14;;;;;;;0.45;0.17;;;16.00;99.90;;;;;;4838760;29;20030;-96
2022/07/29 08:18:45;;;;;;;0.20;0.20;;;16.70;99.90;;;;;;4830145;29;20046;-91
2022/07/29 08:21:30;;;;;;;0.00;0.00;;;16.80;99.90;;;;;;4829610;29;20057;-94
2022/07/29 08:24:42;;;;;;;0.10;0.10;;;16.80;99.90;;;;;;4829586;29;20073;-96
2022/07/29 08:26:42;;;;;;;0.10;0.10;;;16.80;99.90;;;;;;4828326;29;20061;-94
2022/07/29 08:29:07;;;;;;;;;;;16.90;99.90;;;;;;4816109;29;20203;-96
2022/07/29 08:31:33;;;;;;;0.38;0.10;;;16.80;99.90;;;;;;4826450;29;20007;-94
2022/07/29 08:33:59;;;;;;;0.68;0.17;;;16.80;99.90;;;;;;4818396;29;20042;-93
2022/07/29 08:36:26;;;;;;;0.22;0.20;;;16.80;99.90;;;;;;4832834;29;20061;-91
2022/07/29 08:38:52;;;;;;;0.00;0.00;;;16.90;99.90;;;;;;4843373;29;20060;-95
2022/07/29 08:41:19;;;;;;;0.30;0.20;;;16.90;99.90;;;;;;4818442;29;20453;-94
2022/07/29 08:43:46;;;;;;;0.10;0.10;;;16.90;99.90;;;;;;4842956;29;20057;-93
2022/07/29 08:46:12;;;;;;;0.10;0.10;;;16.90;99.90;;;;;;4828989;29;20045;-95
2022/07/29 08:48:38;;;;;;;0.40;0.20;;;16.90;99.90;;;;;;4798903;29;20302;-95
2022/07/29 08:51:06;;;;;;;0.00;0.00;;;16.90;99.90;;;;;;4848123;29;20338;-96
2022/07/29 08:53:37;;;;;;;0.43;0.30;;;16.90;99.90;;;;;;4816576;29;20074;-95
2022/07/29 08:56:04;;;;;;;0.28;0.13;;;17.00;99.90;;;;;;4836092;29;20501;-95
2022/07/29 08:58:33;;;;;;;0.13;0.13;;;17.00;99.90;;;;;;4818607;29;20114;-95
2022/07/29 09:01:02;;;;;;;1.23;0.20;;;17.00;99.90;;;;;;4834243;29;20872;-90
2022/07/29 09:03:34;;;;;;;0.20;0.20;;;17.10;99.90;;;;;;4811790;29;20058;-94
2022/07/29 09:06:04;;;;;;;0.20;0.20;;;17.10;99.90;;;;;;4842607;29;20085;-94
2022/07/29 09:08:32;;;;;;;0.13;0.10;;;17.20;99.90;;;;;;4795799;29;20052;-95
2022/07/29 09:10:59;;;;;;;0.10;0.10;;;17.30;99.90;;;;;;4836687;29;20057;-95
2022/07/29 09:13:25;;;;;;;0.10;0.10;;;17.30;99.90;;;;;;4841772;29;20054;-91
2022/07/29 09:15:52;;;;;;;1.30;0.20;;;17.30;99.90;;;;;;4823666;29;20094;-89
2022/07/29 09:18:38;;;;;;;0.15;0.15;;;17.40;99.90;;;;;;4792441;29;20058;-91
2022/07/29 09:24:10;;;;;;;0.30;0.20;;;17.50;99.90;;;;;;4842505;29;20058;-89
2022/07/29 09:26:42;;;;;;;0.17;0.17;;;17.50;99.90;;;;;;4842133;29;20482;-90
2022/07/29 09:29:10;;;;;;;0.70;0.25;;;17.60;99.90;;;;;;4843012;29;20066;-86
2022/07/29 09:31:39;;;;;;;0.30;0.30;;;17.60;99.90;;;;;;4826429;29;20050;-87
2022/07/29 09:34:06;;;;;;;0.20;0.20;;;17.60;99.90;;;;;;4842324;29;20054;-86
2022/07/29 09:36:42;;;;;;;0.30;0.30;;;17.60;99.90;;;;;;4824869;29;20049;-87
2022/07/29 09:39:08;;;;;;;0.30;0.22;;;17.60;99.90;;;;;;4811790;29;20061;-87
2022/07/29 09:41:49;;;;;;;0.10;0.10;;;17.60;99.90;;;;;;4811236;29;20054;-85
2022/07/29 09:44:15;;;;;;;0.40;0.20;;;17.50;99.90;;;;;;4825711;29;20083;-86
2022/07/29 09:47:05;;;;;;;0.08;0.08;;;17.50;99.90;;;;;;4841778;29;20062;-86
2022/07/29 09:49:34;;;;;;;0.20;0.20;;;17.50;99.90;;;;;;4840330;29;20159;-87
2022/07/29 09:52:07;;;;;;;0.35;0.20;;;17.50;99.90;;;;;;4841841;29;20050;-86
2022/07/29 09:54:36;;;;;;;0.20;0.20;;;17.50;99.90;;;;;;4824334;29;20050;-86
2022/07/29 09:57:08;;;;;;;0.35;0.28;;;17.50;99.90;;;;;;4808722;29;20054;-84
2022/07/29 09:59:34;;;;;;;0.50;0.30;;;17.50;99.90;;;;;;4824468;29;20478;-84
2022/07/29 10:02:00;;;;;;;0.30;0.30;;;17.50;99.90;;;;;;4811807;29;20098;-86
2022/07/29 10:04:40;;;;;;;0.28;0.20;;;17.50;99.90;;;;;;4842670;29;20291;-84
2022/07/29 10:07:06;;;;;;;0.30;0.30;;;17.50;99.90;;;;;;4825464;29;20050;-84
2022/07/29 10:09:33;;;;;;;0.10;0.10;;;17.50;99.90;;;;;;4823186;29;20051;-84
2022/07/29 10:12:08;;;;;;;0.40;0.40;;;17.50;99.90;;;;;;4828283;29;20632;-84
2022/07/29 10:14:35;;;;;;;0.20;0.20;;;17.60;99.90;;;;;;4824156;29;20133;-84
2022/07/29 10:17:01;;;;;;;;;;;17.60;99.90;;;;;;4809376;29;20062;-84
2022/07/29 10:19:31;;;;;;;0.10;0.10;;;17.60;99.90;;;;;;4808043;29;20425;-88
2022/07/29 10:22:02;;;;;;;0.28;0.20;;;17.70;99.90;;;;;;4837196;29;20053;-84
2022/07/29 10:24:30;;;;;;;0.20;0.10;;;17.60;99.90;;;;;;4841716;29;20505;-84
2022/07/29 10:26:57;;;;;;;0.28;0.28;;;17.70;99.90;;;;;;4839600;29;20174;-84
2022/07/29 10:29:24;;;;;;;0.28;0.20;;;17.70;99.90;;;;;;4842581;29;20089;-84
2022/07/29 10:31:59;;;;;;;0.10;0.10;;;17.70;99.90;;;;;;4824754;29;20042;-84
2022/07/29 10:34:43;;;;;;;0.40;0.28;;;17.70;99.90;;;;;;4839839;29;20086;-85
2022/07/29 10:37:52;;;;;;;0.20;0.20;;;17.80;99.90;;;;;;4841426;29;20058;-85
2022/07/29 10:43:43;;;;;;;0.20;0.20;;;17.90;99.90;;;;;;4830137;29;20136;-85
2022/07/29 10:46:10;;;;;;;0.32;0.20;;;18.00;99.90;;;;;;4842421;29;20133;-84
2022/07/29 10:48:56;;;;;;;0.45;0.10;;;18.00;99.90;;;;;;4841671;29;20076;-85
2022/07/29 10:51:22;;;;;;;0.08;0.08;;;18.10;99.90;;;;;;4838802;29;20050;-86
2022/07/29 10:53:49;;;;;;;;;;;18.10;99.90;;;;;;4813160;29;20069;-83
2022/07/29 10:56:30;;;;;;;0.15;0.15;;;18.10;99.90;;;;;;4824973;29;19924;-83
2022/07/29 10:59:18;;;;;;;0.45;0.28;;;18.20;99.90;;;;;;4807947;29;20142;-83
2022/07/29 11:01:44;;;;;;;0.20;0.20;;;18.20;99.90;;;;;;4839011;29;20053;-83
2022/07/29 11:04:10;;;;;;;0.15;0.15;;;18.30;99.90;;;;;;4834515;29;20042;-84
2022/07/29 11:07:01;;;;;;;0.47;0.22;;;18.40;99.90;;;;;;4843687;29;20097;-90
2022/07/29 11:09:30;;;;;;;0.10;0.10;;;18.40;99.90;;;;;;4830338;29;20086;-94
2022/07/29 11:11:56;;;;;;;0.13;0.10;;;18.40;99.90;;;;;;4838442;29;20084;-90
2022/07/29 11:14:40;;;;;;;;;;;18.50;99.90;;;;;;4830010;29;20466;-96
2022/07/29 11:17:07;;;;;;;0.20;0.20;;;18.50;99.90;;;;;;4831539;29;19977;-96
2022/07/29 11:19:33;;;;;;;0.30;0.30;;;18.50;99.90;;;;;;4815415;29;20121;-94
2022/07/29 11:21:59;;;;;;;0.60;0.30;;;18.60;99.90;;;;;;4844258;29;20050;-88
2022/07/29 11:24:28;;;;;;;0.40;0.22;;;18.60;99.90;;;;;;4836875;29;20075;-88
2022/07/29 11:27:06;;;;;;;0.28;0.20;;;18.60;99.90;;;;;;4818517;29;20054;-88
2022/07/29 11:29:32;;;;;;;0.13;0.13;;;18.60;99.90;;;;;;4823720;29;20076;-89
2022/07/29 11:32:18;;;;;;;0.22;0.20;;;18.70;99.90;;;;;;4837759;29;20081;-86
2022/07/29 11:34:44;;;;;;;0.40;0.20;;;18.70;99.90;;;;;;4848378;29;20050;-86
2022/07/29 11:37:12;;;;;;;0.25;0.17;;;18.80;99.90;;;;;;4821317;29;20140;-87
2022/07/29 11:39:53;;;;;;;0.10;0.10;;;18.90;99.90;;;;;;4839312;29;20089;-87
2022/07/29 11:42:24;;;;;;;0.22;0.20;;;19.10;99.90;;;;;;4836083;29;20140;-86
2022/07/29 11:45:00;;;;;;;0.70;0.20;;;19.30;99.90;;;;;;4837464;29;20046;-88
2022/07/29 11:47:28;;;;;;;0.30;0.20;;;19.50;99.90;;;;;;4839555;29;20089;-87
2022/07/29 11:49:59;;;;;;;0.20;0.20;;;19.60;99.90;;;;;;4841038;29;20058;-86
2022/07/29 11:52:44;;;;;;;0.25;0.25;;;19.70;99.90;;;;;;4823535;29;20136;-86
2022/07/29 11:55:22;;;;;;;0.25;0.25;;;19.80;99.90;;;;;;4839949;29;20049;-87
2022/07/29 11:57:53;;;;;;;0.43;0.20;;;19.80;99.90;;;;;;4838439;29;20058;-86
2022/07/29 12:00:26;;;;;;;0.20;0.15;;;19.90;99.90;;;;;;4824934;29;20091;-86
2022/07/29 12:02:52;;;;;;;0.30;0.30;;;20.00;99.90;;;;;;4839309;29;20050;-86
2022/07/29 12:05:18;;;;;;;0.32;0.32;;;20.00;99.90;;;;;;4821422;29;20129;-88
2022/07/29 12:07:45;;;;;;;0.88;0.20;;;20.00;99.90;;;;;;4837091;29;20078;-87
2022/07/29 12:10:10;;;;;;;;;;;20.00;99.90;;;;;;4810931;29;20133;-87
2022/07/29 12:12:38;;;;;;;0.22;0.20;;;20.00;99.90;;;;;;4825503;29;20128;-87
2022/07/29 12:15:20;;;;;;;0.10;0.10;;;20.00;99.90;;;;;;4810908;29;20131;-90
2022/07/29 12:17:46;;;;;;;0.43;0.10;;;20.00;99.90;;;;;;4824253;29;20050;-87
2022/07/29 12:20:17;;;;;;;0.25;0.25;;;20.00;99.90;;;;;;4825176;29;20050;-85
2022/07/29 12:22:44;;;;;;;0.10;0.10;;;20.00;99.90;;;;;;4838732;29;20054;-89
2022/07/29 12:25:15;;;;;;;0.03;0.03;;;20.10;99.90;;;;;;4843579;29;20054;-88
2022/07/29 12:27:45;;;;;;;0.28;0.20;;;20.10;99.90;;;;;;4794227;29;20054;-89
2022/07/29 12:30:15;;;;;;;0.40;0.32;;;20.10;99.90;;;;;;4826521;29;20525;-88
2022/07/29 12:32:46;;;;;;;0.10;0.10;;;20.20;99.90;;;;;;4843585;29;20054;-87
2022/07/29 12:35:14;;;;;;;0.30;0.25;;;20.30;99.90;;;;;;4827212;29;20054;-88
2022/07/29 12:37:42;;;;;;;0.22;0.22;;;20.40;99.90;;;;;;4828033;29;20510;-88
2022/07/29 12:40:10;;;;;;;2.00;0.30;;;20.40;99.90;;;;;;4841407;29;20247;-89
2022/07/29 12:42:37;;;;;;;0.17;0.17;;;20.50;99.90;;;;;;4828274;29;20053;-88
2022/07/29 12:45:03;;;;;;;0.32;0.22;;;20.60;99.90;;;;;;4826881;29;20508;-88
2022/07/29 12:47:30;;;;;;;0.10;0.10;;;20.70;99.90;;;;;;4842291;29;20054;-88
2022/07/29 12:50:17;;;;;;;0.32;0.32;;;20.80;99.90;;;;;;4811611;29;20045;-88
2022/07/29 12:52:43;;;;;;;;;;;21.00;99.90;;;;;;4827619;29;20050;-88
2022/07/29 12:55:09;;;;;;;0.00;0.00;;;21.20;99.90;;;;;;4842878;29;20090;-87
2022/07/29 12:57:46;;;;;;;0.20;0.20;;;21.50;99.90;;;;;;4843403;29;20046;-87
2022/07/29 13:00:13;;;;;;;0.38;0.10;;;21.60;99.90;;;;;;4826516;29;20085;-87
2022/07/29 13:02:41;;;;;;;0.65;0.22;;;21.70;99.90;;;;;;4827355;29;20053;-87
2022/07/29 13:05:11;;;;;;;0.32;0.32;;;21.70;99.90;;;;;;4841428;29;20481;-88
2022/07/29 13:07:37;;;;;;;0.15;0.15;;;21.80;99.90;;;;;;4839312;29;20054;-87
2022/07/29 13:10:15;;;;;;;0.20;0.20;;;21.90;99.90;;;;;;4810121;29;20150;-88
2022/07/29 13:13:08;;;;;;;0.17;0.10;;;21.90;99.90;;;;;;4824445;29;20146;-87
2022/07/29 13:15:35;;;;;;;0.13;0.13;;;21.90;99.90;;;;;;4826917;29;20468;-87
2022/07/29 13:18:01;;;;;;;0.10;0.10;;;22.00;99.90;;;;;;4841464;29;20065;-87
2022/07/29 13:20:31;;;;;;;0.10;0.10;;;22.10;99.90;;;;;;4842209;29;20499;-92
2022/07/29 13:22:59;;;;;;;0.32;0.32;;;22.10;99.90;;;;;;4825676;29;20054;-88
2022/07/29 13:25:26;;;;;;;0.10;0.10;;;22.20;99.90;;;;;;4843765;29;20447;-88
2022/07/29 13:27:54;;;;;;;0.15;0.13;;;22.30;99.90;;;;;;4841767;29;20056;-87
2022/07/29 13:30:21;;;;;;;0.17;0.17;;;22.50;99.90;;;;;;4826634;29;20077;-87
2022/07/29 13:32:47;;;;;;;0.32;0.20;;;22.70;99.90;;;;;;4811083;29;20549;-88
2022/07/29 13:35:13;;;;;;;0.55;0.30;;;22.90;99.90;;;;;;4826625;29;20086;-87
2022/07/29 13:37:39;;;;;;;0.35;0.30;;;22.90;99.90;;;;;;4811247;29;20058;-88
2022/07/29 13:40:07;;;;;;;0.30;0.30;;;23.00;99.90;;;;;;4825991;29;20050;-87
2022/07/29 13:42:33;;;;;;;0.38;0.30;;;23.00;99.90;;;;;;4811370;29;20041;-87
2022/07/29 13:45:00;;;;;;;0.10;0.05;;;23.00;99.90;;;;;;4796661;29;20050;-87
2022/07/29 13:47:26;;;;;;;0.20;0.20;;;22.90;99.90;;;;;;4840463;29;20065;-87
2022/07/29 13:49:53;;;;;;;0.10;0.10;;;23.00;99.90;;;;;;4841902;29;20631;-87
2022/07/29 13:52:19;;;;;;;;;;;23.00;99.90;;;;;;4825253;29;20065;-88
2022/07/29 13:54:45;;;;;;;0.30;0.20;;;22.90;99.90;;;;;;4826886;29;19924;-87
2022/07/29 13:57:11;;;;;;;0.10;0.10;;;22.90;99.90;;;;;;4841889;29;20433;-87
2022/07/29 13:59:37;;;;;;;0.45;0.40;;;22.90;99.90;;;;;;4841524;29;20046;-87
2022/07/29 14:02:03;;;;;;;0.10;0.10;;;22.90;99.90;;;;;;4840764;29;20054;-88
2022/07/29 14:04:29;;;;;;;0.10;0.10;;;22.90;99.90;;;;;;4842255;29;20060;-87
2022/07/29 14:06:54;;;;;;;0.10;0.10;;;23.00;99.90;;;;;;4842978;29;20569;-88
2022/07/29 14:09:20;;;;;;;0.20;0.20;;;22.90;99.90;;;;;;4795604;29;20052;-88
2022/07/29 14:11:49;;;;;;;0.30;0.30;;;22.90;99.90;;;;;;4842780;29;20079;-88
2022/07/29 14:14:14;;;;;;;0.10;0.10;;;22.90;99.90;;;;;;4824119;29;20118;-88
2022/07/29 14:16:40;;;;;;;0.05;0.05;;;22.90;99.90;;;;;;4841458;29;20053;-88
2022/07/29 14:19:06;;;;;;;0.17;0.15;;;23.00;99.90;;;;;;4826394;29;20064;-88
2022/07/29 14:21:32;;;;;;;0.43;0.38;;;23.10;99.90;;;;;;4825020;29;20468;-88
2022/07/29 14:23:58;;;;;;;0.20;0.20;;;23.20;99.90;;;;;;4841121;29;20052;-91
2022/07/29 14:26:24;;;;;;;0.32;0.30;;;23.40;99.90;;;;;;4840150;29;20407;-88
2022/07/29 14:28:50;;;;;;;0.20;0.20;;;23.40;99.90;;;;;;4826678;29;20058;-87
2022/07/29 14:31:16;;;;;;;0.22;0.22;;;23.50;99.90;;;;;;4840550;29;20106;-86
2022/07/29 14:33:42;;;;;;;0.17;0.17;;;23.50;99.90;;;;;;4811062;29;20050;-87
2022/07/29 14:36:09;;;;;;;0.30;0.30;;;23.50;99.90;;;;;;4825178;29;20049;-87
2022/07/29 14:38:35;;;;;;;0.30;0.30;;;23.60;99.90;;;;;;4840561;29;20514;-87
2022/07/29 14:41:01;;;;;;;0.20;0.10;;;23.70;99.90;;;;;;4841241;29;20067;-87
2022/07/29 14:43:27;;;;;;;0.17;0.17;;;23.80;99.90;;;;;;4809862;29;20518;-87
2022/07/29 14:45:52;;;;;;;0.55;0.20;;;23.80;99.90;;;;;;4842286;29;20129;-87
2022/07/29 14:48:18;;;;;;;0.40;0.20;;;23.80;99.90;;;;;;4825328;29;20140;-87
2022/07/29 14:50:44;;;;;;;0.20;0.20;;;23.80;99.90;;;;;;4825407;29;20064;-87
2022/07/29 14:53:11;;;;;;;0.20;0.20;;;23.90;99.90;;;;;;4839633;29;20398;-87
2022/07/29 14:55:37;;;;;;;0.20;0.20;;;24.00;99.90;;;;;;4796329;29;20508;-88
2022/07/29 14:58:03;;;;;;;0.20;0.20;;;24.00;99.90;;;;;;4840812;29;20054;-87
2022/07/29 15:00:32;;;;;;;0.20;0.20;;;24.00;99.90;;;;;;4840110;29;20065;-87
2022/07/29 15:02:59;;;;;;;0.10;0.10;;;24.00;99.90;;;;;;4826251;29;20085;-87
2022/07/29 15:05:24;;;;;;;0.10;0.10;;;24.00;99.90;;;;;;4809847;29;20065;-87
2022/07/29 15:07:50;;;;;;;0.20;0.20;;;24.10;99.90;;;;;;4826056;29;20397;-87
2022/07/29 15:10:16;;;;;;;0.20;0.20;;;24.20;99.90;;;;;;4808969;29;20132;-87
2022/07/29 15:12:42;;;;;;;0.10;0.10;;;24.20;99.90;;;;;;4841473;29;20061;-87
2022/07/29 15:15:08;;;;;;;0.10;0.10;;;24.20;99.90;;;;;;4825709;29;20058;-88
2022/07/29 15:17:34;;;;;;;;;;;24.20;99.90;;;;;;4810453;29;20133;-87
2022/07/29 15:20:00;;;;;;;0.15;0.15;;;24.20;99.90;;;;;;4840029;29;20010;-87
2022/07/29 15:22:25;;;;;;;0.20;0.20;;;24.20;99.90;;;;;;4824422;29;20050;-88
2022/07/29 15:24:51;;;;;;;0.25;0.25;;;24.20;99.90;;;;;;4821783;29;20047;-87
2022/07/29 15:27:17;;;;;;;0.25;0.25;;;24.10;99.90;;;;;;4824773;29;20051;-88
2022/07/29 15:29:43;;;;;;;0.90;0.30;;;24.10;99.90;;;;;;4840324;29;20508;-87
2022/07/29 15:32:09;;;;;;;;;;;24.10;99.90;;;;;;4841070;29;20485;-95
2022/07/29 15:34:47;;;;;;;0.15;0.15;;;24.00;99.90;;;;;;4840546;29;19977;-87
2022/07/29 15:37:12;;;;;;;0.13;0.13;;;24.10;99.90;;;;;;4841493;29;20085;-88
2022/07/29 15:39:38;;;;;;;0.10;0.10;;;24.10;99.90;;;;;;4824598;29;20154;-89
2022/07/29 15:42:04;;;;;;;0.10;0.10;;;24.10;99.90;;;;;;4810473;29;20447;-87
2022/07/29 15:44:29;;;;;;;;;;;24.10;99.90;;;;;;4840900;29;20133;-88
2022/07/29 15:47:07;;;;;;;0.10;0.10;;;24.10;99.90;;;;;;4841665;29;19928;-87
2022/07/29 15:49:34;;;;;;;0.38;0.13;;;24.10;99.90;;;;;;4814874;29;20512;-87
2022/07/29 15:52:02;;;;;;;0.40;0.40;;;24.20;99.90;;;;;;4843242;29;20050;-87
2022/07/29 15:54:28;;;;;;;0.38;0.22;;;24.20;99.90;;;;;;4828838;29;20459;-87
2022/07/29 15:56:54;;;;;;;;;;;24.20;99.90;;;;;;4813086;29;20516;-90
2022/07/29 15:59:21;;;;;;;0.10;0.10;;;24.20;99.90;;;;;;4843255;29;19924;-88
2022/07/29 16:01:46;;;;;;;;;;;24.20;99.90;;;;;;4812483;29;20046;-88
2022/07/29 16:04:33;;;;;;;0.20;0.20;;;24.20;99.90;;;;;;4828830;29;20253;-88
2022/07/29 16:06:58;;;;;;;0.20;0.20;;;24.20;99.90;;;;;;4827320;29;20053;-88
2022/07/29 16:09:25;;;;;;;0.25;0.25;;;24.20;99.90;;;;;;4828272;29;20053;-88
2022/07/29 16:11:52;;;;;;;0.20;0.20;;;24.20;99.90;;;;;;4810430;29;20086;-88
2022/07/29 16:14:18;;;;;;;0.10;0.10;;;24.20;99.90;;;;;;4809690;29;20058;-89
2022/07/29 16:16:44;;;;;;;0.17;0.17;;;24.10;99.90;;;;;;4824484;29;20486;-90
2022/07/29 16:19:10;;;;;;;0.10;0.10;;;24.10;99.90;;;;;;4796395;29;20054;-89
2022/07/29 16:21:37;;;;;;;0.10;0.10;;;24.10;99.90;;;;;;4824343;29;20601;-90
2022/07/29 16:24:03;;;;;;;0.38;0.38;;;24.10;99.90;;;;;;4839405;29;20062;-90
2022/07/29 16:26:29;;;;;;;0.10;0.10;;;24.10;99.90;;;;;;4808801;29;20078;-93
2022/07/29 16:28:55;;;;;;;0.28;0.20;;;24.10;99.90;;;;;;4795829;29;20521;-94